Terminal Aerodrome Forecast
Issued by NWS Wilmington, OH

Current Version | Previous Version | Text Only | Print | Product List | Glossary Off
Versions: 1 2 3 4 5 6 7 8 9 10 11 12 13 14 15 16 17 18 19 20 21 22 23 24 25 26 27 28 29

000
FTUS41 KILN 221100
TAFCVG
TAF
KCVG 221139Z 2212/2318 18005KT P6SM -RA BKN050 OVC080
     FM221400 19012KT P6SM BKN080
     FM222300 18007KT P6SM SCT080
     FM230900 17006KT P6SM BKN025 BKN200
      TEMPO 2310/2314 SCT025 BKN200
     FM231400 14007KT P6SM SCT030 OVC100=

USA.gov is the U.S. government's official web portal to all federal, state and local government web resources and services.